Weather at Tres Arroyos Airport

Public forecast

Using degrees Celsius for public forecast. Weather courtesy of forecast.io.

Closest aviation weather report (METAR) to Tres Arroyos Airport

Report is more than 6 hours old.

Closest report is Héroes De Malvinas Airport, 86.6 nm (160.3 km) NE. Retrieved 2021/06/15 16:31 UTC (1 day ago):

SAZT 151631Z 20017G29KT 9999 FEW018 10/00 Q1028

Closest aviation forecast (TAF) to Tres Arroyos Airport

Forecast is more than 12 hours old.

Closest forecast is Comandante Espora Airport, 88.7 nm (164.3 km) WSW. Retrieved 2021/03/28 06:26 UTC (3 months ago):

TAF SAZB 280500Z 2806/2906 09010KT CAVOK TX22/2818Z TN08/2810Z BECMG 2807/2809 VRB03KT 5000 BR NSC TEMPO 2809/2812 0800 FG NSC BECMG 2812/1814 12005KT CAVOK